Terminal Aerodrome Forecast
Issued by NWS Jacksonville, FL

Home | Current Version | Previous Version | Text Only | Print | Product List | Glossary On
Versions: 1 2 3 4 5 6 7 8 9 10 11 12 13 14 15 16 17 18 19 20 21 22 23 24 25 26 27 28 29 30 31 32 33 34 35 36 37 38 39 40 41
562
FTUS42 KJAX 241120
TAFSSI
TAF
KSSI 241120Z 2412/2512 22012KT P6SM SCT100
     FM241500 22014G20KT P6SM VCTS SCT025CB OVC050
     FM241800 22015G25KT 4SM SHRA VCTS SCT010 BKN025CB OVC050
     FM250000 21015G25KT P6SM VCSH SCT025 BKN040
     FM250200 23015G23KT P6SM BKN100=

USA.gov is the U.S. government's official web portal to all federal, state and local government web resources and services.